Time;durP1;ratioP1;P1;durP2;ratioP2;P2;SDS_P1;SDS_P2;PMS_P1;PMS_P2;Temp;Humidity;BMP_temperature;BMP_pressure;BME280_temperature;BME280_humidity;BME280_pressure;Samples;Min_cycle;Max_cycle;Signal;HPM_P1;HPM_P2
2024/02/07 00:02:22;;;;;;;60.33;32.83;;;;;;;5.11;77.72;99629.89;123534;1099;104254;-76
2024/02/07 00:04:53;;;;;;;59.10;31.97;;;;;;;5.04;77.36;99639.14;123450;1099;105981;-76
2024/02/07 00:07:25;;;;;;;60.50;33.50;;;;;;;5.00;77.73;99637.22;123473;1099;104328;-77
2024/02/07 00:09:56;;;;;;;58.17;33.27;;;;;;;4.96;77.74;99638.80;123459;1099;104358;-77
2024/02/07 00:12:28;;;;;;;58.33;33.10;;;;;;;4.94;77.59;99635.26;123430;1099;104300;-77
2024/02/07 00:14:59;;;;;;;53.13;29.40;;;;;;;4.88;78.09;99634.07;123487;1099;104309;-77
2024/02/07 00:17:30;;;;;;;56.27;29.93;;;;;;;4.83;78.16;99624.38;123238;1099;110521;-77
2024/02/07 00:20:01;;;;;;;54.97;29.87;;;;;;;4.85;78.40;99624.45;123503;1099;104278;-76
2024/02/07 00:22:32;;;;;;;50.30;28.97;;;;;;;4.83;77.84;99620.87;123507;1099;104472;-77
2024/02/07 00:25:05;;;;;;;55.93;29.47;;;;;;;4.74;77.46;99618.77;123420;1099;104380;-76
2024/02/07 00:27:36;;;;;;;52.70;28.00;;;;;;;4.63;78.04;99618.28;123460;1099;104357;-76
2024/02/07 00:30:10;;;;;;;50.00;28.43;;;;;;;4.58;78.46;99618.88;123486;1098;104258;-76
2024/02/07 00:32:41;;;;;;;51.37;29.18;;;;;;;4.50;78.28;99624.64;123671;1099;104271;-77
2024/02/07 00:35:13;;;;;;;54.57;27.93;;;;;;;4.42;78.03;99633.77;123515;1099;104452;-77
2024/02/07 00:37:47;;;;;;;53.10;28.00;;;;;;;4.37;78.46;99624.88;123462;1099;104275;-78
2024/02/07 00:40:18;;;;;;;52.60;28.77;;;;;;;4.34;78.44;99627.34;123497;1099;104271;-77
2024/02/07 00:42:51;;;;;;;51.37;28.53;;;;;;;4.29;78.10;99621.05;123492;1099;104195;-77
2024/02/07 00:45:22;;;;;;;51.13;28.80;;;;;;;4.28;78.28;99627.92;123607;1099;104274;-76
2024/02/07 00:47:54;;;;;;;50.20;28.67;;;;;;;4.28;78.05;99629.64;123438;1099;104430;-75
2024/02/07 00:50:25;;;;;;;50.27;28.30;;;;;;;4.25;78.76;99627.78;123284;1099;104294;-76
2024/02/07 00:52:56;;;;;;;50.80;28.33;;;;;;;4.22;78.14;99629.36;123486;1099;104277;-77
2024/02/07 00:55:28;;;;;;;48.30;27.30;;;;;;;4.20;78.52;99618.90;123671;1099;104281;-77
2024/02/07 00:57:59;;;;;;;48.43;25.97;;;;;;;4.20;78.90;99607.63;123517;1099;104416;-77
2024/02/07 01:00:30;;;;;;;49.60;25.80;;;;;;;4.18;78.54;99609.28;123525;1098;104271;-76
2024/02/07 01:03:01;;;;;;;44.55;26.50;;;;;;;4.15;78.60;99604.82;123494;1099;104453;-76
2024/02/07 01:05:32;;;;;;;51.23;26.70;;;;;;;4.11;78.67;99614.19;123544;1099;104261;-78
2024/02/07 01:08:04;;;;;;;49.60;27.13;;;;;;;4.04;78.47;99599.13;123496;1099;104736;-76
2024/02/07 01:10:36;;;;;;;46.10;24.70;;;;;;;3.98;78.82;99597.95;123401;1099;104229;-76
2024/02/07 01:13:07;;;;;;;48.80;25.47;;;;;;;3.95;79.06;99607.34;123162;1099;104405;-76
2024/02/07 01:15:38;;;;;;;51.07;26.33;;;;;;;3.96;79.74;99597.87;123139;1102;104280;-76
2024/02/07 01:18:09;;;;;;;43.90;25.27;;;;;;;3.95;79.46;99586.58;123220;1099;104272;-76
2024/02/07 01:20:42;;;;;;;48.80;26.70;;;;;;;3.94;79.28;99587.42;123237;1099;104271;-77
2024/02/07 01:23:13;;;;;;;50.67;26.00;;;;;;;4.01;79.74;99579.92;123082;1099;104271;-76
2024/02/07 01:25:44;;;;;;;48.07;26.20;;;;;;;4.05;79.25;99577.55;123435;1099;104331;-77
2024/02/07 01:28:16;;;;;;;45.30;24.60;;;;;;;4.09;79.97;99579.45;123460;1099;104470;-76
2024/02/07 01:30:47;;;;;;;42.00;23.40;;;;;;;4.07;79.88;99580.22;123540;1099;104363;-77
2024/02/07 01:33:18;;;;;;;43.47;24.20;;;;;;;4.01;79.89;99582.52;123356;1099;104323;-76
2024/02/07 01:35:51;;;;;;;40.47;23.07;;;;;;;3.96;79.50;99570.20;123530;1099;104278;-76
2024/02/07 01:38:22;;;;;;;49.13;25.33;;;;;;;3.95;79.79;99568.41;123451;1099;104245;-76
2024/02/07 01:40:57;;;;;;;44.47;24.60;;;;;;;3.96;79.67;99561.53;123167;1099;104287;-76
2024/02/07 01:43:29;;;;;;;40.97;23.13;;;;;;;3.95;80.32;99552.84;123586;1099;104325;-76
2024/02/07 01:46:01;;;;;;;44.63;23.73;;;;;;;3.94;79.61;99558.87;123679;1098;104380;-76
2024/02/07 01:48:34;;;;;;;49.80;26.27;;;;;;;3.95;79.72;99550.24;123781;1099;104226;-76
2024/02/07 01:51:06;;;;;;;45.20;23.83;;;;;;;4.02;79.89;99555.72;123690;1099;104246;-76
2024/02/07 01:53:38;;;;;;;45.30;24.53;;;;;;;4.05;79.95;99553.27;123487;1099;104376;-76
2024/02/07 01:56:11;;;;;;;47.27;24.10;;;;;;;4.08;80.59;99545.63;123503;1099;104374;-77
2024/02/07 01:58:42;;;;;;;44.20;23.87;;;;;;;4.10;80.44;99544.89;123421;1099;104367;-77
2024/02/07 02:01:13;;;;;;;42.97;25.37;;;;;;;4.14;80.22;99551.10;123498;1099;104251;-77
2024/02/07 02:03:45;;;;;;;41.83;23.00;;;;;;;4.16;80.68;99544.30;123422;1099;104536;-77
2024/02/07 02:06:16;;;;;;;47.90;24.63;;;;;;;4.18;80.92;99539.17;123571;1099;104251;-76
2024/02/07 02:08:49;;;;;;;46.15;25.40;;;;;;;4.19;80.80;99535.73;123475;1099;104245;-76
2024/02/07 02:11:29;;;;;;;51.47;26.07;;;;;;;4.16;80.15;99538.19;123453;1099;104297;-76
2024/02/07 02:14:00;;;;;;;46.83;25.27;;;;;;;4.09;80.46;99534.43;123461;1099;104248;-76
2024/02/07 02:16:32;;;;;;;51.23;26.77;;;;;;;4.05;80.23;99538.60;123431;1099;104376;-77
2024/02/07 02:19:03;;;;;;;46.17;25.53;;;;;;;4.04;80.02;99531.62;123478;1099;104317;-77
2024/02/07 02:21:50;;;;;;;43.30;24.97;;;;;;;4.03;80.87;99527.23;123443;1099;104361;-76
2024/02/07 02:24:41;;;;;;;42.70;24.47;;;;;;;4.03;80.29;99526.36;123427;1099;104748;-76
2024/02/07 02:27:28;;;;;;;44.70;26.63;;;;;;;4.02;80.38;99532.36;123574;1099;104261;-77
2024/02/07 02:30:09;;;;;;;47.63;26.97;;;;;;;4.01;80.20;99535.80;123406;1099;104329;-76
2024/02/07 02:32:43;;;;;;;49.07;26.73;;;;;;;3.96;80.32;99527.79;123130;1099;104313;-76
2024/02/07 02:35:16;;;;;;;46.93;26.47;;;;;;;3.90;80.01;99532.70;123181;1099;104383;-76
2024/02/07 02:37:49;;;;;;;48.77;25.57;;;;;;;3.84;80.75;99522.03;123449;1099;104245;-77
2024/02/07 02:40:21;;;;;;;46.63;26.67;;;;;;;3.81;80.34;99527.08;123194;1099;104310;-77
2024/02/07 02:42:52;;;;;;;48.30;25.53;;;;;;;3.81;80.77;99519.29;123173;1099;104357;-77
2024/02/07 02:45:23;;;;;;;47.60;25.77;;;;;;;3.78;80.63;99520.02;123141;1099;104437;-77
2024/02/07 02:47:55;;;;;;;46.30;26.83;;;;;;;3.75;81.18;99519.88;123203;1099;104418;-76
2024/02/07 02:50:28;;;;;;;48.20;25.87;;;;;;;3.78;80.94;99520.02;123376;1099;105675;-76
2024/02/07 02:53:00;;;;;;;47.47;26.93;;;;;;;3.80;80.84;99514.91;123563;1099;104332;-76
2024/02/07 02:55:32;;;;;;;49.60;25.83;;;;;;;3.80;80.82;99518.38;123660;1098;104306;-76
2024/02/07 02:58:03;;;;;;;52.27;26.93;;;;;;;3.75;80.81;99520.75;123611;1099;104406;-76
2024/02/07 03:00:34;;;;;;;43.00;23.60;;;;;;;3.66;80.73;99515.16;123662;1099;104274;-76
2024/02/07 03:03:08;;;;;;;42.87;23.50;;;;;;;3.59;80.82;99513.95;123774;1099;104213;-76
2024/02/07 03:05:45;;;;;;;41.75;23.40;;;;;;;3.58;81.42;99516.48;123719;1099;104306;-75
2024/02/07 03:08:21;;;;;;;41.23;21.93;;;;;;;3.59;81.01;99508.77;123543;1099;104392;-76
2024/02/07 03:10:52;;;;;;;43.10;22.20;;;;;;;3.58;81.44;99514.80;123436;1099;104351;-76
2024/02/07 03:13:24;;;;;;;44.57;23.43;;;;;;;3.58;81.14;99517.39;123216;1099;104332;-77
2024/02/07 03:15:56;;;;;;;44.33;22.80;;;;;;;3.59;80.59;99519.15;123447;1099;104376;-77
2024/02/07 03:18:28;;;;;;;42.70;22.35;;;;;;;3.60;81.26;99520.06;123488;1099;104721;-78
2024/02/07 03:20:59;;;;;;;43.93;23.10;;;;;;;3.59;81.36;99518.27;123454;1099;104393;-77
2024/02/07 03:23:31;;;;;;;43.20;23.23;;;;;;;3.57;81.52;99505.23;123458;1099;104318;-77
2024/02/07 03:26:04;;;;;;;38.93;22.10;;;;;;;3.55;81.10;99491.30;123499;1099;104248;-76
2024/02/07 03:28:35;;;;;;;46.40;23.80;;;;;;;3.55;81.28;99492.98;123566;1099;104277;-76
2024/02/07 03:31:10;;;;;;;44.10;22.23;;;;;;;3.55;80.91;99485.20;123420;1099;104280;-77
2024/02/07 03:33:43;;;;;;;45.93;21.57;;;;;;;3.52;81.08;99478.19;123497;1099;104268;-77
2024/02/07 03:36:17;;;;;;;41.67;21.93;;;;;;;3.50;81.78;99490.17;123447;1099;104265;-77
2024/02/07 03:38:48;;;;;;;39.13;22.27;;;;;;;3.44;81.67;99476.03;123163;1099;104274;-77
2024/02/07 03:41:20;;;;;;;44.07;23.80;;;;;;;3.38;80.58;99469.75;123502;1098;104198;-76
2024/02/07 03:43:51;;;;;;;41.90;23.27;;;;;;;3.35;81.35;99471.28;123482;1099;104271;-77
2024/02/07 03:46:23;;;;;;;48.57;24.27;;;;;;;3.31;81.43;99469.38;123468;1099;104313;-77
2024/02/07 03:48:55;;;;;;;45.73;24.70;;;;;;;3.32;81.63;99476.33;123192;1099;104800;-76
2024/02/07 03:51:28;;;;;;;45.90;24.55;;;;;;;3.32;80.98;99471.14;123438;1099;104321;-77
2024/02/07 03:53:59;;;;;;;49.75;24.55;;;;;;;3.31;81.46;99465.08;123460;1099;104348;-76
2024/02/07 03:56:31;;;;;;;48.73;23.67;;;;;;;3.32;81.89;99460.77;123485;1099;104236;-77
2024/02/07 03:59:02;;;;;;;43.17;22.87;;;;;;;3.31;81.45;99456.41;123450;1099;104399;-76
2024/02/07 04:01:33;;;;;;;44.53;23.70;;;;;;;3.30;81.61;99462.41;123324;1099;104336;-77
2024/02/07 04:04:08;;;;;;;42.83;24.07;;;;;;;3.28;81.27;99461.45;123209;1099;104408;-76
2024/02/07 04:06:40;;;;;;;49.77;25.03;;;;;;;3.30;81.93;99462.41;123615;1099;104322;-77
2024/02/07 04:09:11;;;;;;;42.17;22.33;;;;;;;3.30;81.78;99458.09;123580;1099;104251;-77
2024/02/07 05:15:48;;;;;;;43.67;23.17;;;;;;;2.93;82.71;99434.70;123602;1099;104300;-76
2024/02/07 05:18:21;;;;;;;44.63;23.20;;;;;;;2.91;82.47;99431.16;123278;1099;104354;-76
2024/02/07 05:20:52;;;;;;;44.95;24.70;;;;;;;2.86;81.94;99426.62;123289;1099;104290;-77
2024/02/07 05:23:24;;;;;;;42.10;24.87;;;;;;;2.85;82.64;99422.28;123580;1099;104655;-77
2024/02/07 05:25:58;;;;;;;44.53;24.07;;;;;;;2.86;82.50;99415.38;123393;1099;104258;-76
2024/02/07 05:28:29;;;;;;;47.67;25.03;;;;;;;2.88;81.98;99427.61;123742;1099;104251;-77
2024/02/07 05:31:00;;;;;;;46.87;26.40;;;;;;;2.87;82.23;99419.77;123690;1099;104254;-76
2024/02/07 05:33:31;;;;;;;46.67;25.47;;;;;;;2.89;82.08;99410.34;123966;1099;104274;-77
2024/02/07 05:36:02;;;;;;;42.77;24.83;;;;;;;2.91;82.49;99411.30;123474;1099;103697;-77
2024/02/07 05:38:33;;;;;;;46.97;24.73;;;;;;;2.93;82.39;99411.38;123657;1099;104287;-77
2024/02/07 05:41:05;;;;;;;46.57;25.57;;;;;;;2.94;82.66;99410.58;123660;1099;104888;-76
2024/02/07 05:43:36;;;;;;;46.53;25.83;;;;;;;2.93;82.31;99408.78;123682;1098;104357;-77
2024/02/07 05:46:07;;;;;;;46.90;25.23;;;;;;;2.94;82.31;99405.39;123633;1099;104325;-77
2024/02/07 05:48:40;;;;;;;43.90;24.85;;;;;;;2.96;82.58;99414.12;123955;1099;104361;-77
2024/02/07 05:51:22;;;;;;;44.93;23.73;;;;;;;2.94;82.66;99410.58;123627;1099;104223;-77
2024/02/07 05:53:53;;;;;;;51.80;28.20;;;;;;;2.93;83.19;99412.28;123862;1099;104721;-78
2024/02/07 05:56:24;;;;;;;62.60;33.70;;;;;;;2.90;82.63;99409.55;123883;1099;104390;-78
2024/02/07 05:58:56;;;;;;;61.07;33.63;;;;;;;2.90;82.97;99413.81;123833;1099;104341;-77
2024/02/07 06:01:27;;;;;;;67.57;38.67;;;;;;;2.88;82.81;99414.66;123711;1099;104338;-77
2024/02/07 06:03:58;;;;;;;71.63;40.43;;;;;;;2.86;83.27;99412.79;123995;1099;104258;-77
2024/02/07 06:06:29;;;;;;;69.43;40.00;;;;;;;2.81;83.14;99404.79;123528;1099;104382;-76
2024/02/07 06:09:01;;;;;;;71.03;41.10;;;;;;;2.83;82.69;99408.33;123965;1099;104258;-77
2024/02/07 06:11:34;;;;;;;72.43;39.60;;;;;;;2.87;82.82;99404.21;123789;1099;104281;-77
2024/02/07 06:14:06;;;;;;;73.67;42.13;;;;;;;2.94;83.32;99415.75;124313;1099;104267;-77
2024/02/07 06:16:37;;;;;;;73.20;40.97;;;;;;;2.98;83.30;99413.39;124478;1099;104242;-77
2024/02/07 06:19:09;;;;;;;74.97;39.90;;;;;;;3.05;82.99;99409.38;124351;1099;104277;-77
2024/02/07 06:21:40;;;;;;;76.20;42.73;;;;;;;3.14;83.44;99419.31;124756;1099;104647;-77
2024/02/07 06:24:13;;;;;;;74.10;39.60;;;;;;;3.21;83.62;99414.49;124730;1099;104204;-76
2024/02/07 06:26:47;;;;;;;75.43;43.93;;;;;;;3.28;83.80;99423.44;124173;1099;104188;-77
2024/02/07 06:29:19;;;;;;;67.00;38.13;;;;;;;3.38;83.99;99423.07;124704;1099;104403;-77
2024/02/07 06:31:50;;;;;;;76.53;42.93;;;;;;;3.52;83.34;99415.94;124322;1098;104248;-77
2024/02/07 06:34:21;;;;;;;74.00;41.55;;;;;;;3.64;83.73;99418.19;124354;1099;104194;-77
2024/02/07 06:36:52;;;;;;;70.03;39.20;;;;;;;3.77;83.78;99417.94;124427;1099;104486;-77
2024/02/07 06:39:25;;;;;;;65.43;37.70;;;;;;;3.88;83.87;99418.43;124834;1099;104290;-76
2024/02/07 06:42:02;;;;;;;70.83;39.63;;;;;;;3.97;84.15;99417.93;124237;1099;104204;-77
2024/02/07 06:44:35;;;;;;;68.73;38.13;;;;;;;4.07;83.91;99424.45;124688;1099;102271;-77
2024/02/07 06:47:07;;;;;;;67.63;38.30;;;;;;;4.21;84.31;99422.45;124505;1099;104670;-77
2024/02/07 06:49:40;;;;;;;62.77;37.17;;;;;;;4.30;84.07;99426.33;124464;1099;104187;-77
2024/02/07 06:52:12;;;;;;;73.97;39.13;;;;;;;4.39;84.34;99422.34;124340;1099;104217;-77
2024/02/07 06:54:43;;;;;;;68.43;38.83;;;;;;;4.52;84.36;99415.95;124019;1099;104216;-78
2024/02/07 06:57:15;;;;;;;71.00;39.07;;;;;;;4.63;84.01;99414.73;124729;1099;104165;-78
2024/02/07 06:59:46;;;;;;;66.23;38.83;;;;;;;4.72;84.11;99415.11;124697;1099;102586;-77
2024/02/07 07:02:18;;;;;;;69.17;39.30;;;;;;;4.85;84.35;99411.30;124792;1099;104400;-78
2024/02/07 07:04:50;;;;;;;67.53;38.53;;;;;;;4.96;84.16;99415.22;125000;1099;104280;-77
2024/02/07 07:07:21;;;;;;;63.47;37.53;;;;;;;5.08;84.17;99416.52;124936;1099;104229;-79
2024/02/07 07:09:52;;;;;;;69.03;38.43;;;;;;;5.18;84.67;99403.95;124967;1099;104277;-79
2024/02/07 07:12:24;;;;;;;60.83;36.43;;;;;;;5.32;85.06;99401.02;125179;1099;104251;-78
2024/02/07 07:14:55;;;;;;;59.97;35.87;;;;;;;5.44;84.78;99400.59;124724;1099;102977;-79
2024/02/07 07:17:28;;;;;;;58.93;35.33;;;;;;;5.55;84.74;99399.31;125274;1099;104415;-79
2024/02/07 07:19:59;;;;;;;60.63;35.83;;;;;;;5.65;84.66;99405.73;124689;1099;104732;-78
2024/02/07 07:22:33;;;;;;;59.73;35.33;;;;;;;5.72;84.57;99397.34;124912;1099;104325;-78
2024/02/07 07:25:06;;;;;;;58.30;35.63;;;;;;;5.82;84.80;99393.36;125476;1099;102844;-78
2024/02/07 07:27:38;;;;;;;62.03;36.70;;;;;;;5.93;84.85;99392.02;125367;1099;104299;-77
2024/02/07 07:30:13;;;;;;;64.43;36.63;;;;;;;6.01;84.47;99388.00;125136;1099;104159;-78
2024/02/07 07:32:45;;;;;;;63.67;35.20;;;;;;;6.08;84.36;99384.80;124847;1099;104616;-79
2024/02/07 07:35:18;;;;;;;62.63;36.50;;;;;;;6.16;84.72;99381.59;125235;1099;104329;-78
2024/02/07 07:37:49;;;;;;;60.40;35.27;;;;;;;6.23;84.37;99379.27;125288;1099;104179;-78
2024/02/07 07:40:23;;;;;;;62.10;36.70;;;;;;;6.33;84.95;99374.34;124797;1099;104233;-78
2024/02/07 07:42:59;;;;;;;68.30;37.40;;;;;;;6.37;84.45;99366.68;124957;1099;104252;-79
2024/02/07 07:45:36;;;;;;;62.77;36.37;;;;;;;6.43;84.68;99364.28;125530;1099;104157;-78
2024/02/07 07:48:12;;;;;;;61.93;37.33;;;;;;;6.52;84.68;99365.45;126037;1099;104245;-76
2024/02/07 07:50:43;;;;;;;59.30;36.03;;;;;;;6.59;84.85;99362.20;124964;1099;104313;-76
2024/02/07 07:53:15;;;;;;;60.27;36.20;;;;;;;6.64;84.81;99353.70;125261;1099;104687;-76
2024/02/07 07:55:46;;;;;;;61.30;37.27;;;;;;;6.72;84.67;99351.36;124679;1099;104492;-77
2024/02/07 07:58:17;;;;;;;67.37;36.83;;;;;;;6.84;85.00;99345.66;125400;1099;104175;-77
2024/02/07 08:00:49;;;;;;;65.33;38.13;;;;;;;6.95;84.69;99345.98;125335;1099;102452;-76
2024/02/07 08:03:23;;;;;;;65.43;36.63;;;;;;;7.06;84.95;99339.39;125468;1099;104264;-76
2024/02/07 08:06:00;;;;;;;66.40;38.10;;;;;;;7.18;84.72;99336.27;125318;1099;104371;-76
2024/02/07 08:08:31;;;;;;;65.33;37.73;;;;;;;7.31;85.15;99329.72;125301;1099;104322;-76
2024/02/07 08:11:06;;;;;;;56.13;32.10;;;;;;;7.46;84.92;99332.75;125156;1099;104318;-77
2024/02/07 08:13:44;;;;;;;53.30;30.30;;;;;;;7.68;84.78;99326.45;124995;1099;104288;-76
2024/02/07 08:16:16;;;;;;;42.33;23.53;;;;;;;7.94;84.67;99325.40;125019;1099;104201;-77
2024/02/07 08:18:49;;;;;;;39.43;21.37;;;;;;;8.19;85.19;99322.58;125134;1099;104162;-77
2024/02/07 08:21:20;;;;;;;36.03;18.70;;;;;;;8.52;84.88;99324.33;125309;1099;104178;-77
2024/02/07 08:23:55;;;;;;;23.80;11.00;;;;;;;8.84;85.05;99310.30;125339;1099;102582;-77
2024/02/07 08:26:27;;;;;;;20.30;8.87;;;;;;;9.17;84.77;99299.69;125286;1099;102606;-77
2024/02/07 08:29:07;;;;;;;22.73;6.50;;;;;;;9.55;83.87;99299.61;125270;1099;104194;-77
2024/02/07 08:31:39;;;;;;;14.20;6.53;;;;;;;9.92;82.99;99295.11;125272;1099;104214;-78
2024/02/07 08:34:10;;;;;;;17.60;6.93;;;;;;;10.26;83.47;99303.59;125451;1099;101887;-78
2024/02/07 08:36:42;;;;;;;17.63;6.10;;;;;;;10.52;80.73;99305.83;124879;1099;104201;-78
2024/02/07 08:39:14;;;;;;;13.60;6.20;;;;;;;10.76;81.84;99314.08;125305;1099;109462;-78
2024/02/07 08:41:45;;;;;;;16.03;6.40;;;;;;;10.94;81.83;99304.74;125246;1099;101993;-79
2024/02/07 08:44:18;;;;;;;16.50;6.40;;;;;;;11.07;80.19;99305.80;125079;1099;104329;-78
2024/02/07 08:46:50;;;;;;;16.03;6.37;;;;;;;11.15;79.53;99307.66;124517;1102;104322;-78
2024/02/07 08:49:22;;;;;;;17.87;6.30;;;;;;;11.22;80.92;99318.25;124994;1099;104172;-78
2024/02/07 08:51:54;;;;;;;16.67;6.77;;;;;;;11.26;80.33;99309.56;124567;1099;104265;-78
2024/02/07 08:54:25;;;;;;;17.07;7.00;;;;;;;11.30;79.94;99321.89;125040;1099;104179;-78
2024/02/07 08:56:56;;;;;;;14.57;6.57;;;;;;;11.33;80.17;99321.92;124866;1099;104246;-78
2024/02/07 08:59:27;;;;;;;19.83;7.23;;;;;;;11.39;79.48;99331.61;124981;1099;107609;-79
2024/02/07 09:02:01;;;;;;;14.20;5.80;;;;;;;11.44;78.92;99322.95;124921;1099;102312;-79
2024/02/07 09:04:34;;;;;;;20.05;7.90;;;;;;;11.50;78.85;99322.16;124421;1099;104274;-79
2024/02/07 09:07:08;;;;;;;15.63;6.60;;;;;;;11.57;78.70;99320.48;124754;1099;104251;-78
2024/02/07 09:09:40;;;;;;;13.10;6.00;;;;;;;11.62;78.71;99311.77;124516;1099;104297;-77
2024/02/07 09:12:11;;;;;;;14.87;6.20;;;;;;;11.69;78.48;99308.37;125001;1099;104124;-78
2024/02/07 09:14:49;;;;;;;16.37;6.73;;;;;;;11.76;78.10;99322.45;125007;1099;104207;-79
2024/02/07 09:17:20;;;;;;;17.03;6.57;;;;;;;11.77;77.58;99311.09;124944;1099;104274;-78
2024/02/07 09:20:00;;;;;;;14.13;6.30;;;;;;;11.78;77.34;99323.37;125356;1099;104243;-78
2024/02/07 09:22:35;;;;;;;13.30;6.27;;;;;;;11.80;77.15;99315.52;125348;1099;104393;-78
2024/02/07 09:25:14;;;;;;;15.93;6.33;;;;;;;11.81;76.80;99317.25;124713;1099;104165;-78
2024/02/07 09:27:47;;;;;;;15.40;6.97;;;;;;;11.83;75.99;99308.53;124886;1099;104252;-78
2024/02/07 09:30:25;;;;;;;17.17;6.50;;;;;;;11.84;76.50;99304.15;124892;1099;109428;-78
2024/02/07 09:33:01;;;;;;;19.73;6.97;;;;;;;11.85;75.93;99301.54;125098;1099;104224;-78
2024/02/07 09:35:36;;;;;;;13.77;6.17;;;;;;;11.86;75.51;99292.80;125040;1099;104357;-78
2024/02/07 09:38:12;;;;;;;16.40;6.10;;;;;;;11.90;75.77;99290.20;124819;1099;104290;-78
2024/02/07 09:40:44;;;;;;;23.20;6.87;;;;;;;11.93;75.61;99285.02;124788;1099;104165;-78
2024/02/07 09:43:16;;;;;;;15.97;6.90;;;;;;;11.97;74.88;99277.17;124791;1099;104237;-78
2024/02/07 09:45:50;;;;;;;12.67;6.07;;;;;;;12.01;74.00;99271.09;124973;1099;104271;-79
2024/02/07 09:48:23;;;;;;;13.80;6.27;;;;;;;12.08;74.35;99276.42;124990;1099;104356;-78
2024/02/07 09:50:57;;;;;;;16.25;5.90;;;;;;;12.13;73.72;99274.70;124990;1099;104229;-78
2024/02/07 09:53:31;;;;;;;18.92;6.53;;;;;;;12.18;73.44;99262.47;125020;1099;104223;-77
2024/02/07 09:56:02;;;;;;;12.82;6.10;;;;;;;12.24;72.90;99270.42;124921;1099;104208;-79
2024/02/07 09:58:34;;;;;;;13.75;6.05;;;;;;;12.29;73.23;99265.20;125077;1099;104280;-78
2024/02/07 10:01:09;;;;;;;13.30;5.67;;;;;;;12.37;72.46;99258.25;124849;1099;105892;-79
2024/02/07 10:03:45;;;;;;;15.63;6.37;;;;;;;12.42;72.12;99267.09;124892;1099;104797;-78
2024/02/07 10:06:17;;;;;;;15.07;5.83;;;;;;;12.50;72.31;99265.39;124829;1099;104254;-79
2024/02/07 10:08:50;;;;;;;13.73;6.33;;;;;;;12.53;72.49;99265.41;124967;1099;104280;-77
2024/02/07 10:11:23;;;;;;;14.03;5.73;;;;;;;12.58;70.57;99262.82;125049;1099;104322;-78
2024/02/07 10:13:56;;;;;;;17.12;6.58;;;;;;;12.61;72.21;99248.81;125056;1099;104248;-79
2024/02/07 10:16:28;;;;;;;;;;;;;;;12.66;71.13;99249.72;125250;1099;104303;-79
2024/02/07 10:19:02;;;;;;;17.80;6.10;;;;;;;12.69;71.90;99247.11;124815;1099;104184;-77
2024/02/07 10:21:37;;;;;;;13.20;5.70;;;;;;;12.73;71.15;99244.52;124987;1098;104268;-77
2024/02/07 10:24:09;;;;;;;14.33;5.80;;;;;;;12.77;71.28;99242.77;124914;1099;104242;-77
2024/02/07 10:26:48;;;;;;;15.40;6.60;;;;;;;12.81;70.89;99241.94;125099;1098;104453;-78
2024/02/07 10:29:25;;;;;;;15.73;6.37;;;;;;;12.84;70.49;99236.69;124628;1099;104350;-77
2024/02/07 10:32:01;;;;;;;15.40;5.70;;;;;;;12.87;69.84;99238.44;124564;1099;104230;-77
2024/02/07 10:34:36;;;;;;;14.60;5.73;;;;;;;12.87;69.66;99238.44;124639;1099;104288;-77
2024/02/07 10:37:10;;;;;;;21.87;6.00;;;;;;;12.91;70.24;99230.57;124957;1099;104185;-77
2024/02/07 10:39:41;;;;;;;14.40;5.73;;;;;;;12.92;69.09;99234.97;125612;1098;102551;-78
2024/02/07 10:42:16;;;;;;;16.23;5.90;;;;;;;12.93;69.67;99231.48;124921;1099;104239;-77
2024/02/07 10:44:50;;;;;;;14.37;5.20;;;;;;;12.94;69.33;99233.22;125034;1099;104251;-77
2024/02/07 10:47:24;;;;;;;17.20;5.93;;;;;;;12.95;68.70;99232.36;124841;1099;104182;-77
2024/02/07 10:50:08;;;;;;;13.35;5.70;;;;;;;12.95;69.20;99219.20;125061;1099;104194;-77
2024/02/07 10:52:40;;;;;;;15.80;5.00;;;;;;;12.99;69.17;99227.11;125191;1099;104182;-77
2024/02/07 10:55:17;;;;;;;10.60;5.20;;;;;;;12.99;68.72;99221.84;125074;1099;103983;-77
2024/02/07 10:57:53;;;;;;;15.40;5.93;;;;;;;13.01;68.54;99220.09;125083;1099;104166;-77
2024/02/07 11:00:26;;;;;;;12.53;5.53;;;;;;;13.03;67.66;99213.10;124498;1099;104812;-79
2024/02/07 11:03:00;;;;;;;14.23;5.67;;;;;;;13.05;67.56;99224.52;125113;1099;104258;-78
2024/02/07 11:05:34;;;;;;;14.67;5.73;;;;;;;13.05;67.60;99214.84;124621;1099;104143;-77
2024/02/07 11:08:06;;;;;;;14.13;5.50;;;;;;;13.09;67.35;99218.40;125183;1099;104211;-79
2024/02/07 11:10:38;;;;;;;18.90;6.00;;;;;;;13.13;66.95;99215.80;124579;1099;104703;-77
2024/02/07 11:13:13;;;;;;;14.80;5.45;;;;;;;13.17;67.22;99219.31;124809;1099;104136;-76
2024/02/07 11:15:45;;;;;;;16.27;5.83;;;;;;;13.20;66.81;99206.16;124905;1099;104268;-77
2024/02/07 11:18:16;;;;;;;16.27;5.57;;;;;;;13.25;66.14;99214.08;125120;1099;104264;-77
2024/02/07 11:20:53;;;;;;;13.97;5.47;;;;;;;13.26;66.66;99203.55;125114;1100;103761;-77
2024/02/07 11:23:35;;;;;;;13.33;5.63;;;;;;;13.30;66.09;99202.66;125453;1099;104217;-76
2024/02/07 11:26:15;;;;;;;13.47;5.60;;;;;;;13.34;66.53;99203.61;125178;1099;104274;-77
2024/02/07 11:28:48;;;;;;;15.00;5.80;;;;;;;13.36;65.87;99199.22;125376;1099;104180;-77
2024/02/07 11:31:21;;;;;;;;;;;;;;;13.38;64.06;99200.09;125308;1099;104249;-77
2024/02/07 11:33:56;;;;;;;15.83;5.53;;;;;;;13.40;65.13;99192.19;125152;1099;104076;-77
2024/02/07 11:36:30;;;;;;;15.07;5.63;;;;;;;13.42;65.48;99191.34;125363;1099;104182;-76
2024/02/07 11:39:01;;;;;;;13.38;5.42;;;;;;;13.45;65.17;99179.94;125427;1099;104262;-78
2024/02/07 11:41:46;;;;;;;9.60;5.27;;;;;;;13.46;65.40;99181.67;124701;1099;104192;-78
2024/02/07 11:44:16;;;;;;;;;;;;;;;13.48;62.08;99177.31;124567;1099;103422;-77
2024/02/07 11:46:54;;;;;;;18.17;5.63;;;;;;;13.52;64.31;99173.78;125150;1099;102300;-76
2024/02/07 11:49:30;;;;;;;14.97;5.30;;;;;;;13.56;64.80;99157.12;125079;1097;104143;-78
2024/02/07 11:52:02;;;;;;;9.83;4.83;;;;;;;13.60;64.30;99153.63;125266;1099;102956;-79
2024/02/07 11:54:38;;;;;;;14.07;5.47;;;;;;;13.63;63.51;99161.53;125256;1099;104166;-79
2024/02/07 11:57:11;;;;;;;12.77;5.30;;;;;;;13.68;63.67;99158.01;125086;1099;104429;-77
2024/02/07 11:59:43;;;;;;;13.07;5.00;;;;;;;13.71;63.73;99155.37;125166;1099;104354;-78
2024/02/07 12:02:16;;;;;;;13.93;5.60;;;;;;;13.74;63.64;99148.34;125241;1099;104172;-78
2024/02/07 12:04:48;;;;;;;15.60;5.53;;;;;;;13.76;63.33;99141.34;125071;1099;104687;-78
2024/02/07 12:07:22;;;;;;;15.93;5.63;;;;;;;13.78;62.66;99134.30;125314;1099;102051;-77
2024/02/07 12:09:56;;;;;;;13.03;5.30;;;;;;;13.81;62.96;99130.80;124617;1099;102701;-78
2024/02/07 12:12:27;;;;;;;;;;;;;;;13.83;59.59;99132.53;124641;1099;104156;-79
2024/02/07 12:15:00;;;;;;;13.83;4.87;;;;;;;13.83;61.11;99119.34;125291;1099;104185;-78
2024/02/07 12:17:37;;;;;;;17.97;5.33;;;;;;;13.86;62.02;99122.89;124585;1099;104287;-77
2024/02/07 12:20:13;;;;;;;16.47;5.53;;;;;;;13.88;60.55;99111.44;124670;1099;104227;-79
2024/02/07 12:22:46;;;;;;;11.83;4.53;;;;;;;13.93;60.78;99114.08;124964;1098;102635;-77
2024/02/07 12:25:26;;;;;;;11.20;4.40;;;;;;;13.91;57.27;99103.53;124991;1099;104172;-79
2024/02/07 12:28:08;;;;;;;11.07;4.33;;;;;;;13.94;59.71;99111.44;125146;1099;103179;-78
2024/02/07 12:30:45;;;;;;;11.57;4.10;;;;;;;13.98;61.12;99118.48;125124;1099;104220;-78
2024/02/07 12:33:18;;;;;;;10.67;4.17;;;;;;;14.00;59.22;99121.12;124471;1102;104588;-79
2024/02/07 12:35:56;;;;;;;12.47;4.30;;;;;;;13.96;59.15;99109.70;124512;1099;104307;-79
2024/02/07 12:38:30;;;;;;;12.37;4.57;;;;;;;13.96;58.75;99116.72;124390;1099;104368;-78
2024/02/07 12:41:04;;;;;;;;;;;;;;;13.94;58.68;99121.12;124566;1099;104335;-79
2024/02/07 12:43:36;;;;;;;9.23;4.35;;;;;;;13.90;59.62;99119.35;125130;1099;104216;-79